sensor_id;sensor_type;location;lat;lon;timestamp;P1;durP1;ratioP1;P2;durP2;ratioP2
80111;SDS011;69421;51.062;3.728;2023-12-07T00:00:15;32.97;;;13.67;;
80111;SDS011;69421;51.062;3.728;2023-12-07T00:02:41;41.28;;;13.88;;
80111;SDS011;69421;51.062;3.728;2023-12-07T00:05:07;44.23;;;15.40;;
80111;SDS011;69421;51.062;3.728;2023-12-07T00:07:33;54.60;;;16.98;;
80111;SDS011;69421;51.062;3.728;2023-12-07T00:09:58;31.15;;;13.32;;
80111;SDS011;69421;51.062;3.728;2023-12-07T00:12:24;55.43;;;14.80;;
80111;SDS011;69421;51.062;3.728;2023-12-07T00:14:49;42.78;;;15.65;;
80111;SDS011;69421;51.062;3.728;2023-12-07T00:17:15;33.77;;;12.60;;
80111;SDS011;69421;51.062;3.728;2023-12-07T00:19:40;39.37;;;14.37;;
80111;SDS011;69421;51.062;3.728;2023-12-07T00:22:05;40.47;;;13.87;;
80111;SDS011;69421;51.062;3.728;2023-12-07T00:24:31;43.45;;;15.10;;
80111;SDS011;69421;51.062;3.728;2023-12-07T00:26:56;44.03;;;14.70;;
80111;SDS011;69421;51.062;3.728;2023-12-07T00:29:21;41.90;;;15.70;;
80111;SDS011;69421;51.062;3.728;2023-12-07T00:31:47;40.03;;;14.77;;
80111;SDS011;69421;51.062;3.728;2023-12-07T00:34:12;48.67;;;14.87;;
80111;SDS011;69421;51.062;3.728;2023-12-07T00:36:38;36.17;;;13.03;;
80111;SDS011;69421;51.062;3.728;2023-12-07T00:39:06;48.55;;;14.75;;
80111;SDS011;69421;51.062;3.728;2023-12-07T00:41:31;42.25;;;15.27;;
80111;SDS011;69421;51.062;3.728;2023-12-07T00:43:57;46.83;;;14.87;;
80111;SDS011;69421;51.062;3.728;2023-12-07T00:46:22;40.17;;;15.23;;
80111;SDS011;69421;51.062;3.728;2023-12-07T00:48:48;44.13;;;16.15;;
80111;SDS011;69421;51.062;3.728;2023-12-07T00:51:13;43.42;;;13.20;;
80111;SDS011;69421;51.062;3.728;2023-12-07T00:53:40;40.80;;;15.20;;
80111;SDS011;69421;51.062;3.728;2023-12-07T00:56:06;35.53;;;12.73;;
80111;SDS011;69421;51.062;3.728;2023-12-07T00:58:32;39.70;;;15.02;;
80111;SDS011;69421;51.062;3.728;2023-12-07T01:00:57;39.42;;;13.45;;
80111;SDS011;69421;51.062;3.728;2023-12-07T01:03:23;40.93;;;14.23;;
80111;SDS011;69421;51.062;3.728;2023-12-07T01:05:48;30.83;;;14.73;;
80111;SDS011;69421;51.062;3.728;2023-12-07T01:08:13;39.60;;;13.70;;
80111;SDS011;69421;51.062;3.728;2023-12-07T01:10:39;29.73;;;11.27;;
80111;SDS011;69421;51.062;3.728;2023-12-07T01:13:04;35.30;;;13.60;;
80111;SDS011;69421;51.062;3.728;2023-12-07T01:15:30;41.17;;;14.07;;
80111;SDS011;69421;51.062;3.728;2023-12-07T01:17:56;40.10;;;11.57;;
80111;SDS011;69421;51.062;3.728;2023-12-07T01:20:21;42.03;;;15.87;;
80111;SDS011;69421;51.062;3.728;2023-12-07T01:22:46;32.13;;;12.43;;
80111;SDS011;69421;51.062;3.728;2023-12-07T01:25:12;43.27;;;13.70;;
80111;SDS011;69421;51.062;3.728;2023-12-07T01:27:38;41.63;;;13.55;;
80111;SDS011;69421;51.062;3.728;2023-12-07T01:30:04;33.35;;;12.10;;
80111;SDS011;69421;51.062;3.728;2023-12-07T01:32:30;45.15;;;15.20;;
80111;SDS011;69421;51.062;3.728;2023-12-07T01:34:55;50.55;;;14.27;;
80111;SDS011;69421;51.062;3.728;2023-12-07T01:37:21;51.97;;;16.03;;
80111;SDS011;69421;51.062;3.728;2023-12-07T01:39:49;54.22;;;16.27;;
80111;SDS011;69421;51.062;3.728;2023-12-07T01:42:14;52.40;;;17.53;;
80111;SDS011;69421;51.062;3.728;2023-12-07T01:44:40;50.60;;;16.50;;
80111;SDS011;69421;51.062;3.728;2023-12-07T01:47:05;69.23;;;19.53;;
80111;SDS011;69421;51.062;3.728;2023-12-07T01:49:32;61.85;;;18.02;;
80111;SDS011;69421;51.062;3.728;2023-12-07T01:51:58;55.30;;;18.67;;
80111;SDS011;69421;51.062;3.728;2023-12-07T01:54:24;55.25;;;16.90;;
80111;SDS011;69421;51.062;3.728;2023-12-07T01:56:50;71.60;;;19.07;;
80111;SDS011;69421;51.062;3.728;2023-12-07T01:59:16;61.67;;;19.67;;
80111;SDS011;69421;51.062;3.728;2023-12-07T02:01:41;56.17;;;18.10;;
80111;SDS011;69421;51.062;3.728;2023-12-07T02:04:08;63.63;;;18.55;;
80111;SDS011;69421;51.062;3.728;2023-12-07T02:06:34;63.25;;;20.00;;
80111;SDS011;69421;51.062;3.728;2023-12-07T02:09:00;59.30;;;18.87;;
80111;SDS011;69421;51.062;3.728;2023-12-07T02:11:26;60.88;;;18.05;;
80111;SDS011;69421;51.062;3.728;2023-12-07T02:13:52;59.73;;;19.83;;
80111;SDS011;69421;51.062;3.728;2023-12-07T02:16:41;59.70;;;20.23;;
80111;SDS011;69421;51.062;3.728;2023-12-07T02:21:47;58.88;;;19.33;;
80111;SDS011;69421;51.062;3.728;2023-12-07T02:24:18;50.10;;;16.95;;
80111;SDS011;69421;51.062;3.728;2023-12-07T02:26:46;46.88;;;17.52;;
80111;SDS011;69421;51.062;3.728;2023-12-07T02:29:11;44.58;;;16.05;;
80111;SDS011;69421;51.062;3.728;2023-12-07T02:31:37;32.57;;;14.10;;
80111;SDS011;69421;51.062;3.728;2023-12-07T02:34:02;49.92;;;20.55;;
80111;SDS011;69421;51.062;3.728;2023-12-07T02:36:28;40.42;;;16.60;;
80111;SDS011;69421;51.062;3.728;2023-12-07T02:38:56;46.97;;;15.18;;
80111;SDS011;69421;51.062;3.728;2023-12-07T02:41:22;44.28;;;17.73;;
80111;SDS011;69421;51.062;3.728;2023-12-07T02:43:47;40.17;;;16.13;;
80111;SDS011;69421;51.062;3.728;2023-12-07T02:46:13;42.57;;;15.43;;
80111;SDS011;69421;51.062;3.728;2023-12-07T02:48:38;43.17;;;17.40;;
80111;SDS011;69421;51.062;3.728;2023-12-07T02:51:04;44.50;;;16.27;;
80111;SDS011;69421;51.062;3.728;2023-12-07T02:53:29;50.83;;;17.90;;
80111;SDS011;69421;51.062;3.728;2023-12-07T02:55:55;42.83;;;16.40;;
80111;SDS011;69421;51.062;3.728;2023-12-07T02:58:20;46.70;;;17.97;;
80111;SDS011;69421;51.062;3.728;2023-12-07T03:00:45;50.17;;;17.13;;
80111;SDS011;69421;51.062;3.728;2023-12-07T03:03:11;44.63;;;19.30;;
80111;SDS011;69421;51.062;3.728;2023-12-07T03:05:36;42.50;;;15.33;;
80111;SDS011;69421;51.062;3.728;2023-12-07T03:08:02;44.33;;;14.20;;
80111;SDS011;69421;51.062;3.728;2023-12-07T03:10:27;40.38;;;15.13;;
80111;SDS011;69421;51.062;3.728;2023-12-07T03:12:52;36.17;;;14.97;;
80111;SDS011;69421;51.062;3.728;2023-12-07T03:15:18;41.23;;;17.67;;
80111;SDS011;69421;51.062;3.728;2023-12-07T03:17:43;34.07;;;11.37;;
80111;SDS011;69421;51.062;3.728;2023-12-07T03:20:09;32.35;;;11.52;;
80111;SDS011;69421;51.062;3.728;2023-12-07T03:22:35;37.20;;;14.70;;
80111;SDS011;69421;51.062;3.728;2023-12-07T03:25:00;40.53;;;14.55;;
80111;SDS011;69421;51.062;3.728;2023-12-07T03:27:26;40.70;;;15.73;;
80111;SDS011;69421;51.062;3.728;2023-12-07T03:29:53;38.25;;;15.10;;
80111;SDS011;69421;51.062;3.728;2023-12-07T03:32:18;39.30;;;14.88;;
80111;SDS011;69421;51.062;3.728;2023-12-07T03:34:44;36.93;;;15.37;;
80111;SDS011;69421;51.062;3.728;2023-12-07T03:37:09;36.53;;;14.53;;
80111;SDS011;69421;51.062;3.728;2023-12-07T03:39:34;29.27;;;12.83;;
80111;SDS011;69421;51.062;3.728;2023-12-07T03:42:00;37.80;;;13.07;;
80111;SDS011;69421;51.062;3.728;2023-12-07T03:44:25;42.83;;;17.58;;
80111;SDS011;69421;51.062;3.728;2023-12-07T03:46:51;33.33;;;14.70;;
80111;SDS011;69421;51.062;3.728;2023-12-07T03:49:17;42.83;;;16.73;;
80111;SDS011;69421;51.062;3.728;2023-12-07T03:51:43;35.10;;;13.80;;
80111;SDS011;69421;51.062;3.728;2023-12-07T03:54:08;38.70;;;16.07;;
80111;SDS011;69421;51.062;3.728;2023-12-07T03:56:33;35.90;;;14.63;;
80111;SDS011;69421;51.062;3.728;2023-12-07T03:58:59;42.17;;;14.82;;
80111;SDS011;69421;51.062;3.728;2023-12-07T04:01:26;29.05;;;12.93;;
80111;SDS011;69421;51.062;3.728;2023-12-07T04:03:52;33.75;;;13.73;;
80111;SDS011;69421;51.062;3.728;2023-12-07T04:06:19;37.08;;;16.85;;
80111;SDS011;69421;51.062;3.728;2023-12-07T04:08:45;30.63;;;13.63;;
80111;SDS011;69421;51.062;3.728;2023-12-07T04:11:11;32.50;;;13.52;;
80111;SDS011;69421;51.062;3.728;2023-12-07T04:13:37;35.63;;;15.93;;
80111;SDS011;69421;51.062;3.728;2023-12-07T04:16:02;34.97;;;15.97;;
80111;SDS011;69421;51.062;3.728;2023-12-07T04:18:28;32.55;;;12.75;;
80111;SDS011;69421;51.062;3.728;2023-12-07T04:20:54;37.67;;;14.27;;
80111;SDS011;69421;51.062;3.728;2023-12-07T04:23:19;33.20;;;13.37;;
80111;SDS011;69421;51.062;3.728;2023-12-07T04:25:44;29.23;;;11.80;;
80111;SDS011;69421;51.062;3.728;2023-12-07T04:28:10;30.87;;;12.27;;
80111;SDS011;69421;51.062;3.728;2023-12-07T04:30:35;36.70;;;15.10;;
80111;SDS011;69421;51.062;3.728;2023-12-07T04:33:01;37.27;;;13.33;;
80111;SDS011;69421;51.062;3.728;2023-12-07T04:35:26;36.53;;;13.18;;
80111;SDS011;69421;51.062;3.728;2023-12-07T04:37:53;36.55;;;13.35;;
80111;SDS011;69421;51.062;3.728;2023-12-07T04:40:19;28.25;;;13.10;;
80111;SDS011;69421;51.062;3.728;2023-12-07T04:42:44;38.72;;;15.23;;
80111;SDS011;69421;51.062;3.728;2023-12-07T04:45:09;35.45;;;14.20;;
80111;SDS011;69421;51.062;3.728;2023-12-07T04:47:35;28.30;;;12.65;;
80111;SDS011;69421;51.062;3.728;2023-12-07T04:50:00;35.37;;;14.40;;
80111;SDS011;69421;51.062;3.728;2023-12-07T04:52:26;39.93;;;15.83;;
80111;SDS011;69421;51.062;3.728;2023-12-07T04:54:51;31.55;;;12.38;;
80111;SDS011;69421;51.062;3.728;2023-12-07T04:57:17;30.83;;;13.03;;
80111;SDS011;69421;51.062;3.728;2023-12-07T04:59:42;29.53;;;13.73;;
80111;SDS011;69421;51.062;3.728;2023-12-07T05:02:12;44.13;;;17.48;;
80111;SDS011;69421;51.062;3.728;2023-12-07T05:04:38;35.80;;;15.85;;
80111;SDS011;69421;51.062;3.728;2023-12-07T05:07:04;38.10;;;16.53;;
80111;SDS011;69421;51.062;3.728;2023-12-07T05:09:29;46.87;;;18.97;;
80111;SDS011;69421;51.062;3.728;2023-12-07T05:11:57;45.67;;;19.30;;
80111;SDS011;69421;51.062;3.728;2023-12-07T05:14:23;44.20;;;19.52;;
80111;SDS011;69421;51.062;3.728;2023-12-07T05:16:48;44.88;;;18.65;;
80111;SDS011;69421;51.062;3.728;2023-12-07T05:19:18;42.63;;;17.92;;
80111;SDS011;69421;51.062;3.728;2023-12-07T05:21:45;51.70;;;21.92;;
80111;SDS011;69421;51.062;3.728;2023-12-07T05:24:12;38.30;;;18.38;;
80111;SDS011;69421;51.062;3.728;2023-12-07T05:26:37;46.47;;;19.17;;
80111;SDS011;69421;51.062;3.728;2023-12-07T05:29:02;37.03;;;16.53;;
80111;SDS011;69421;51.062;3.728;2023-12-07T05:31:28;31.30;;;15.47;;
80111;SDS011;69421;51.062;3.728;2023-12-07T05:33:55;34.30;;;15.38;;
80111;SDS011;69421;51.062;3.728;2023-12-07T05:36:20;28.98;;;13.27;;
80111;SDS011;69421;51.062;3.728;2023-12-07T05:38:46;24.93;;;13.33;;
80111;SDS011;69421;51.062;3.728;2023-12-07T05:41:11;31.63;;;14.07;;
80111;SDS011;69421;51.062;3.728;2023-12-07T05:43:40;25.75;;;13.90;;
80111;SDS011;69421;51.062;3.728;2023-12-07T05:46:06;28.92;;;16.15;;
80111;SDS011;69421;51.062;3.728;2023-12-07T05:48:32;27.58;;;16.00;;
80111;SDS011;69421;51.062;3.728;2023-12-07T05:50:57;27.90;;;13.23;;
80111;SDS011;69421;51.062;3.728;2023-12-07T05:53:23;23.98;;;11.75;;
80111;SDS011;69421;51.062;3.728;2023-12-07T05:55:52;24.95;;;12.60;;
80111;SDS011;69421;51.062;3.728;2023-12-07T05:58:17;24.00;;;12.90;;
80111;SDS011;69421;51.062;3.728;2023-12-07T06:00:43;24.20;;;13.07;;
80111;SDS011;69421;51.062;3.728;2023-12-07T06:03:11;24.45;;;12.40;;
80111;SDS011;69421;51.062;3.728;2023-12-07T06:05:40;20.70;;;10.70;;
80111;SDS011;69421;51.062;3.728;2023-12-07T06:08:06;25.33;;;11.98;;
80111;SDS011;69421;51.062;3.728;2023-12-07T06:10:32;23.95;;;12.52;;
80111;SDS011;69421;51.062;3.728;2023-12-07T06:12:57;26.07;;;13.37;;
80111;SDS011;69421;51.062;3.728;2023-12-07T06:15:25;21.02;;;11.35;;
80111;SDS011;69421;51.062;3.728;2023-12-07T06:17:51;24.55;;;13.27;;
80111;SDS011;69421;51.062;3.728;2023-12-07T06:20:17;28.07;;;14.37;;
80111;SDS011;69421;51.062;3.728;2023-12-07T06:22:42;25.63;;;14.10;;
80111;SDS011;69421;51.062;3.728;2023-12-07T06:25:08;25.17;;;12.10;;
80111;SDS011;69421;51.062;3.728;2023-12-07T06:27:36;27.38;;;13.73;;
80111;SDS011;69421;51.062;3.728;2023-12-07T06:30:02;28.13;;;13.43;;
80111;SDS011;69421;51.062;3.728;2023-12-07T06:32:30;24.92;;;13.60;;
80111;SDS011;69421;51.062;3.728;2023-12-07T06:34:56;27.85;;;13.18;;
80111;SDS011;69421;51.062;3.728;2023-12-07T06:37:22;26.03;;;13.47;;
80111;SDS011;69421;51.062;3.728;2023-12-07T06:39:47;26.10;;;13.07;;
80111;SDS011;69421;51.062;3.728;2023-12-07T06:42:19;22.90;;;11.88;;
80111;SDS011;69421;51.062;3.728;2023-12-07T06:44:48;20.83;;;12.33;;
80111;SDS011;69421;51.062;3.728;2023-12-07T06:47:14;26.08;;;13.25;;
80111;SDS011;69421;51.062;3.728;2023-12-07T06:49:40;23.90;;;11.10;;
80111;SDS011;69421;51.062;3.728;2023-12-07T06:52:05;22.50;;;13.25;;
80111;SDS011;69421;51.062;3.728;2023-12-07T06:54:31;27.67;;;12.80;;
80111;SDS011;69421;51.062;3.728;2023-12-07T06:56:56;23.90;;;11.73;;
80111;SDS011;69421;51.062;3.728;2023-12-07T06:59:21;21.17;;;10.20;;
80111;SDS011;69421;51.062;3.728;2023-12-07T07:01:47;25.60;;;13.20;;
80111;SDS011;69421;51.062;3.728;2023-12-07T07:04:12;23.63;;;12.93;;
80111;SDS011;69421;51.062;3.728;2023-12-07T07:06:39;26.25;;;13.30;;
80111;SDS011;69421;51.062;3.728;2023-12-07T07:09:05;25.65;;;10.85;;
80111;SDS011;69421;51.062;3.728;2023-12-07T07:11:30;24.38;;;14.80;;
80111;SDS011;69421;51.062;3.728;2023-12-07T07:13:56;20.70;;;11.48;;
80111;SDS011;69421;51.062;3.728;2023-12-07T07:16:21;21.90;;;10.07;;
80111;SDS011;69421;51.062;3.728;2023-12-07T07:18:46;19.27;;;10.15;;
80111;SDS011;69421;51.062;3.728;2023-12-07T07:21:12;26.20;;;13.13;;
80111;SDS011;69421;51.062;3.728;2023-12-07T07:23:37;21.17;;;11.53;;
80111;SDS011;69421;51.062;3.728;2023-12-07T07:26:03;18.07;;;9.00;;
80111;SDS011;69421;51.062;3.728;2023-12-07T07:28:28;21.77;;;11.20;;
80111;SDS011;69421;51.062;3.728;2023-12-07T07:30:54;23.63;;;10.80;;
80111;SDS011;69421;51.062;3.728;2023-12-07T07:33:19;25.50;;;11.37;;
80111;SDS011;69421;51.062;3.728;2023-12-07T07:35:45;28.85;;;12.10;;
80111;SDS011;69421;51.062;3.728;2023-12-07T07:38:10;24.00;;;12.63;;
80111;SDS011;69421;51.062;3.728;2023-12-07T07:40:35;18.00;;;9.43;;
80111;SDS011;69421;51.062;3.728;2023-12-07T07:43:01;18.43;;;11.83;;
80111;SDS011;69421;51.062;3.728;2023-12-07T07:45:27;19.27;;;10.65;;
80111;SDS011;69421;51.062;3.728;2023-12-07T07:47:52;24.00;;;10.30;;
80111;SDS011;69421;51.062;3.728;2023-12-07T07:50:18;15.52;;;9.93;;
80111;SDS011;69421;51.062;3.728;2023-12-07T07:52:43;19.77;;;11.90;;
80111;SDS011;69421;51.062;3.728;2023-12-07T07:55:09;23.13;;;11.82;;
80111;SDS011;69421;51.062;3.728;2023-12-07T07:57:35;25.73;;;12.10;;
80111;SDS011;69421;51.062;3.728;2023-12-07T08:00:00;26.93;;;11.77;;
80111;SDS011;69421;51.062;3.728;2023-12-07T08:02:26;22.13;;;11.20;;
80111;SDS011;69421;51.062;3.728;2023-12-07T08:04:52;20.70;;;12.48;;
80111;SDS011;69421;51.062;3.728;2023-12-07T08:07:17;28.25;;;12.10;;
80111;SDS011;69421;51.062;3.728;2023-12-07T08:09:43;24.27;;;11.60;;
80111;SDS011;69421;51.062;3.728;2023-12-07T08:12:08;23.23;;;13.03;;
80111;SDS011;69421;51.062;3.728;2023-12-07T08:14:37;24.23;;;13.25;;
80111;SDS011;69421;51.062;3.728;2023-12-07T08:17:03;18.85;;;10.95;;
80111;SDS011;69421;51.062;3.728;2023-12-07T08:19:28;24.98;;;11.52;;
80111;SDS011;69421;51.062;3.728;2023-12-07T08:21:54;19.70;;;11.57;;
80111;SDS011;69421;51.062;3.728;2023-12-07T08:24:19;22.77;;;11.03;;
80111;SDS011;69421;51.062;3.728;2023-12-07T08:26:45;24.42;;;11.57;;
80111;SDS011;69421;51.062;3.728;2023-12-07T08:29:10;19.95;;;10.93;;
80111;SDS011;69421;51.062;3.728;2023-12-07T08:31:36;25.63;;;12.18;;
80111;SDS011;69421;51.062;3.728;2023-12-07T08:34:01;20.23;;;11.33;;
80111;SDS011;69421;51.062;3.728;2023-12-07T08:36:27;23.02;;;11.98;;
80111;SDS011;69421;51.062;3.728;2023-12-07T08:38:52;18.63;;;11.50;;
80111;SDS011;69421;51.062;3.728;2023-12-07T08:41:18;21.60;;;10.70;;
80111;SDS011;69421;51.062;3.728;2023-12-07T08:43:44;20.97;;;12.13;;
80111;SDS011;69421;51.062;3.728;2023-12-07T08:46:09;20.50;;;10.83;;
80111;SDS011;69421;51.062;3.728;2023-12-07T08:48:38;23.83;;;12.03;;
80111;SDS011;69421;51.062;3.728;2023-12-07T08:51:03;21.23;;;11.02;;
80111;SDS011;69421;51.062;3.728;2023-12-07T08:53:29;27.17;;;12.52;;
80111;SDS011;69421;51.062;3.728;2023-12-07T08:55:54;22.63;;;14.07;;
80111;SDS011;69421;51.062;3.728;2023-12-07T08:58:20;19.17;;;10.10;;
80111;SDS011;69421;51.062;3.728;2023-12-07T09:00:46;19.52;;;10.55;;
80111;SDS011;69421;51.062;3.728;2023-12-07T09:03:11;26.17;;;13.18;;
80111;SDS011;69421;51.062;3.728;2023-12-07T09:05:37;18.30;;;10.45;;
80111;SDS011;69421;51.062;3.728;2023-12-07T09:08:02;19.67;;;9.70;;
80111;SDS011;69421;51.062;3.728;2023-12-07T09:10:28;19.90;;;12.57;;
80111;SDS011;69421;51.062;3.728;2023-12-07T09:12:54;25.05;;;12.30;;
80111;SDS011;69421;51.062;3.728;2023-12-07T09:15:19;20.50;;;12.30;;
80111;SDS011;69421;51.062;3.728;2023-12-07T09:17:46;19.55;;;11.82;;
80111;SDS011;69421;51.062;3.728;2023-12-07T09:20:13;19.48;;;10.63;;
80111;SDS011;69421;51.062;3.728;2023-12-07T09:22:42;18.35;;;11.18;;
80111;SDS011;69421;51.062;3.728;2023-12-07T09:25:09;24.42;;;12.02;;
80111;SDS011;69421;51.062;3.728;2023-12-07T09:27:35;20.00;;;10.15;;
80111;SDS011;69421;51.062;3.728;2023-12-07T09:30:03;15.77;;;10.23;;
80111;SDS011;69421;51.062;3.728;2023-12-07T09:32:30;18.48;;;11.48;;
80111;SDS011;69421;51.062;3.728;2023-12-07T09:34:55;17.60;;;9.30;;
80111;SDS011;69421;51.062;3.728;2023-12-07T09:37:20;18.37;;;9.37;;
80111;SDS011;69421;51.062;3.728;2023-12-07T09:39:46;19.63;;;10.90;;
80111;SDS011;69421;51.062;3.728;2023-12-07T09:42:11;16.13;;;9.47;;
80111;SDS011;69421;51.062;3.728;2023-12-07T09:44:36;17.60;;;9.87;;
80111;SDS011;69421;51.062;3.728;2023-12-07T09:47:02;21.08;;;11.27;;
80111;SDS011;69421;51.062;3.728;2023-12-07T09:49:31;19.42;;;9.50;;
80111;SDS011;69421;51.062;3.728;2023-12-07T09:51:57;21.15;;;10.15;;
80111;SDS011;69421;51.062;3.728;2023-12-07T09:54:23;12.52;;;8.85;;
80111;SDS011;69421;51.062;3.728;2023-12-07T09:56:50;15.35;;;8.88;;
80111;SDS011;69421;51.062;3.728;2023-12-07T09:59:18;16.60;;;8.95;;
80111;SDS011;69421;51.062;3.728;2023-12-07T10:01:43;15.68;;;9.50;;
80111;SDS011;69421;51.062;3.728;2023-12-07T10:04:22;16.37;;;8.53;;
80111;SDS011;69421;51.062;3.728;2023-12-07T10:06:49;15.25;;;9.15;;
80111;SDS011;69421;51.062;3.728;2023-12-07T10:09:15;13.07;;;9.05;;
80111;SDS011;69421;51.062;3.728;2023-12-07T10:11:41;17.27;;;9.52;;
80111;SDS011;69421;51.062;3.728;2023-12-07T10:14:07;15.88;;;8.27;;
80111;SDS011;69421;51.062;3.728;2023-12-07T10:16:33;16.98;;;9.98;;
80111;SDS011;69421;51.062;3.728;2023-12-07T10:19:16;14.55;;;9.18;;
80111;SDS011;69421;51.062;3.728;2023-12-07T10:24:08;13.85;;;7.00;;
80111;SDS011;69421;51.062;3.728;2023-12-07T10:26:34;17.02;;;9.27;;
80111;SDS011;69421;51.062;3.728;2023-12-07T10:29:01;18.25;;;10.27;;
80111;SDS011;69421;51.062;3.728;2023-12-07T10:31:30;14.80;;;8.98;;
80111;SDS011;69421;51.062;3.728;2023-12-07T10:33:56;16.92;;;9.60;;
80111;SDS011;69421;51.062;3.728;2023-12-07T10:36:21;22.75;;;12.60;;
80111;SDS011;69421;51.062;3.728;2023-12-07T10:38:47;14.15;;;8.90;;
80111;SDS011;69421;51.062;3.728;2023-12-07T10:41:16;13.93;;;9.55;;
80111;SDS011;69421;51.062;3.728;2023-12-07T10:43:44;17.38;;;9.25;;
80111;SDS011;69421;51.062;3.728;2023-12-07T10:46:14;14.65;;;8.45;;
80111;SDS011;69421;51.062;3.728;2023-12-07T10:48:41;17.73;;;8.10;;
80111;SDS011;69421;51.062;3.728;2023-12-07T10:51:09;19.25;;;11.52;;
80111;SDS011;69421;51.062;3.728;2023-12-07T10:53:42;14.57;;;9.18;;
80111;SDS011;69421;51.062;3.728;2023-12-07T10:56:16;14.35;;;7.57;;
80111;SDS011;69421;51.062;3.728;2023-12-07T10:58:55;15.52;;;8.90;;
80111;SDS011;69421;51.062;3.728;2023-12-07T11:01:39;10.63;;;7.88;;
80111;SDS011;69421;51.062;3.728;2023-12-07T11:04:05;11.70;;;8.98;;
80111;SDS011;69421;51.062;3.728;2023-12-07T11:06:34;10.55;;;7.00;;
80111;SDS011;69421;51.062;3.728;2023-12-07T11:09:01;14.18;;;8.63;;
80111;SDS011;69421;51.062;3.728;2023-12-07T11:14:17;9.38;;;6.03;;
80111;SDS011;69421;51.062;3.728;2023-12-07T11:16:45;16.48;;;8.43;;
80111;SDS011;69421;51.062;3.728;2023-12-07T11:21:58;12.88;;;6.60;;
80111;SDS011;69421;51.062;3.728;2023-12-07T11:24:25;11.70;;;6.65;;
80111;SDS011;69421;51.062;3.728;2023-12-07T11:26:54;16.85;;;7.30;;
80111;SDS011;69421;51.062;3.728;2023-12-07T11:29:20;13.73;;;8.98;;
80111;SDS011;69421;51.062;3.728;2023-12-07T11:31:46;15.93;;;8.10;;
80111;SDS011;69421;51.062;3.728;2023-12-07T11:34:13;9.73;;;6.85;;
80111;SDS011;69421;51.062;3.728;2023-12-07T11:36:39;10.35;;;7.05;;
80111;SDS011;69421;51.062;3.728;2023-12-07T11:41:34;9.48;;;5.93;;
80111;SDS011;69421;51.062;3.728;2023-12-07T11:44:00;12.52;;;6.93;;
80111;SDS011;69421;51.062;3.728;2023-12-07T11:46:26;11.43;;;6.72;;
80111;SDS011;69421;51.062;3.728;2023-12-07T11:48:51;9.93;;;7.40;;
80111;SDS011;69421;51.062;3.728;2023-12-07T11:51:17;12.00;;;7.22;;
80111;SDS011;69421;51.062;3.728;2023-12-07T11:53:43;10.38;;;6.25;;
80111;SDS011;69421;51.062;3.728;2023-12-07T11:56:09;9.57;;;6.57;;
80111;SDS011;69421;51.062;3.728;2023-12-07T11:58:36;8.90;;;6.65;;
80111;SDS011;69421;51.062;3.728;2023-12-07T12:01:02;9.85;;;5.93;;
80111;SDS011;69421;51.062;3.728;2023-12-07T12:03:29;10.52;;;6.82;;
80111;SDS011;69421;51.062;3.728;2023-12-07T12:05:57;10.77;;;6.70;;
80111;SDS011;69421;51.062;3.728;2023-12-07T12:08:22;8.52;;;6.90;;
80111;SDS011;69421;51.062;3.728;2023-12-07T12:10:49;8.80;;;6.00;;
80111;SDS011;69421;51.062;3.728;2023-12-07T12:13:16;8.32;;;6.25;;
80111;SDS011;69421;51.062;3.728;2023-12-07T12:15:42;11.63;;;6.07;;
80111;SDS011;69421;51.062;3.728;2023-12-07T12:18:08;10.32;;;6.47;;
80111;SDS011;69421;51.062;3.728;2023-12-07T12:20:33;11.20;;;6.15;;
80111;SDS011;69421;51.062;3.728;2023-12-07T12:22:59;20.52;;;7.85;;
80111;SDS011;69421;51.062;3.728;2023-12-07T12:25:26;12.05;;;7.80;;
80111;SDS011;69421;51.062;3.728;2023-12-07T12:28:02;11.98;;;6.30;;
80111;SDS011;69421;51.062;3.728;2023-12-07T12:30:29;11.20;;;7.40;;
80111;SDS011;69421;51.062;3.728;2023-12-07T12:32:55;11.02;;;5.35;;
80111;SDS011;69421;51.062;3.728;2023-12-07T12:35:20;12.57;;;7.50;;
80111;SDS011;69421;51.062;3.728;2023-12-07T12:37:46;9.60;;;5.00;;
80111;SDS011;69421;51.062;3.728;2023-12-07T12:40:14;9.80;;;6.30;;
80111;SDS011;69421;51.062;3.728;2023-12-07T12:42:42;10.25;;;6.25;;
80111;SDS011;69421;51.062;3.728;2023-12-07T12:45:08;8.13;;;5.88;;
80111;SDS011;69421;51.062;3.728;2023-12-07T12:47:35;8.68;;;5.68;;
80111;SDS011;69421;51.062;3.728;2023-12-07T12:50:01;11.25;;;6.47;;
80111;SDS011;69421;51.062;3.728;2023-12-07T12:52:29;11.20;;;6.30;;
80111;SDS011;69421;51.062;3.728;2023-12-07T12:54:56;8.25;;;5.22;;
80111;SDS011;69421;51.062;3.728;2023-12-07T12:57:22;10.55;;;5.43;;
80111;SDS011;69421;51.062;3.728;2023-12-07T12:59:48;8.50;;;4.90;;
80111;SDS011;69421;51.062;3.728;2023-12-07T13:02:13;11.32;;;6.22;;
80111;SDS011;69421;51.062;3.728;2023-12-07T13:04:39;11.25;;;5.25;;
80111;SDS011;69421;51.062;3.728;2023-12-07T13:07:05;7.38;;;4.90;;
80111;SDS011;69421;51.062;3.728;2023-12-07T13:09:31;5.03;;;4.07;;
80111;SDS011;69421;51.062;3.728;2023-12-07T13:11:57;9.55;;;4.97;;
80111;SDS011;69421;51.062;3.728;2023-12-07T13:14:23;6.88;;;3.83;;
80111;SDS011;69421;51.062;3.728;2023-12-07T13:16:48;8.40;;;5.77;;
80111;SDS011;69421;51.062;3.728;2023-12-07T13:19:14;8.13;;;4.57;;
80111;SDS011;69421;51.062;3.728;2023-12-07T13:21:39;7.63;;;4.10;;
80111;SDS011;69421;51.062;3.728;2023-12-07T13:24:04;6.07;;;4.37;;
80111;SDS011;69421;51.062;3.728;2023-12-07T13:26:32;10.32;;;4.97;;
80111;SDS011;69421;51.062;3.728;2023-12-07T13:28:58;10.10;;;4.60;;
80111;SDS011;69421;51.062;3.728;2023-12-07T13:31:23;10.30;;;5.53;;
80111;SDS011;69421;51.062;3.728;2023-12-07T13:33:49;6.63;;;4.50;;
80111;SDS011;69421;51.062;3.728;2023-12-07T13:36:15;7.00;;;4.50;;
80111;SDS011;69421;51.062;3.728;2023-12-07T13:38:43;6.63;;;4.53;;
80111;SDS011;69421;51.062;3.728;2023-12-07T13:41:08;7.07;;;3.90;;
80111;SDS011;69421;51.062;3.728;2023-12-07T13:43:34;5.35;;;4.47;;
80111;SDS011;69421;51.062;3.728;2023-12-07T13:45:59;7.32;;;4.68;;
80111;SDS011;69421;51.062;3.728;2023-12-07T13:48:25;5.78;;;3.92;;
80111;SDS011;69421;51.062;3.728;2023-12-07T13:50:51;7.85;;;4.05;;
80111;SDS011;69421;51.062;3.728;2023-12-07T13:53:17;8.52;;;4.80;;
80111;SDS011;69421;51.062;3.728;2023-12-07T13:55:44;4.40;;;2.95;;
80111;SDS011;69421;51.062;3.728;2023-12-07T13:58:10;7.93;;;3.90;;
80111;SDS011;69421;51.062;3.728;2023-12-07T14:00:36;7.05;;;5.45;;
80111;SDS011;69421;51.062;3.728;2023-12-07T14:03:02;6.72;;;4.85;;
80111;SDS011;69421;51.062;3.728;2023-12-07T14:05:29;5.95;;;3.72;;
80111;SDS011;69421;51.062;3.728;2023-12-07T14:07:55;7.18;;;5.60;;
80111;SDS011;69421;51.062;3.728;2023-12-07T14:10:20;5.72;;;4.10;;
80111;SDS011;69421;51.062;3.728;2023-12-07T14:12:47;7.82;;;4.47;;
80111;SDS011;69421;51.062;3.728;2023-12-07T14:15:12;5.78;;;3.72;;
80111;SDS011;69421;51.062;3.728;2023-12-07T14:17:38;8.35;;;4.07;;
80111;SDS011;69421;51.062;3.728;2023-12-07T14:20:07;7.70;;;4.60;;
80111;SDS011;69421;51.062;3.728;2023-12-07T14:22:33;9.32;;;4.82;;
80111;SDS011;69421;51.062;3.728;2023-12-07T14:25:00;6.68;;;4.07;;
80111;SDS011;69421;51.062;3.728;2023-12-07T14:27:25;8.77;;;5.40;;
80111;SDS011;69421;51.062;3.728;2023-12-07T14:29:51;5.83;;;4.30;;
80111;SDS011;69421;51.062;3.728;2023-12-07T14:32:16;6.00;;;4.35;;
80111;SDS011;69421;51.062;3.728;2023-12-07T14:34:42;8.68;;;5.20;;